sensor_id;sensor_type;location;lat;lon;timestamp;pressure;altitude;pressure_sealevel;temperature;humidity
52735;BME280;38631;47.572;10.704;2023-01-26T00:01:21;92711.09;;;-3.70;100.00
52735;BME280;38631;47.572;10.704;2023-01-26T00:03:47;92706.84;;;-3.64;100.00
52735;BME280;38631;47.572;10.704;2023-01-26T00:06:16;92700.25;;;-3.60;100.00
52735;BME280;38631;47.572;10.704;2023-01-26T00:08:43;92701.34;;;-3.49;100.00
52735;BME280;38631;47.572;10.704;2023-01-26T00:11:11;92702.84;;;-3.41;100.00
52735;BME280;38631;47.572;10.704;2023-01-26T00:13:37;92700.53;;;-3.31;100.00
52735;BME280;38631;47.572;10.704;2023-01-26T00:16:03;92696.53;;;-3.45;100.00
52735;BME280;38631;47.572;10.704;2023-01-26T00:18:29;92699.69;;;-3.43;100.00
52735;BME280;38631;47.572;10.704;2023-01-26T00:20:59;92700.19;;;-3.53;100.00
52735;BME280;38631;47.572;10.704;2023-01-26T00:23:26;92698.03;;;-3.38;100.00
52735;BME280;38631;47.572;10.704;2023-01-26T00:25:52;92698.19;;;-3.76;100.00
52735;BME280;38631;47.572;10.704;2023-01-26T00:28:17;92707.69;;;-3.63;100.00
52735;BME280;38631;47.572;10.704;2023-01-26T00:30:43;92712.59;;;-3.55;100.00
52735;BME280;38631;47.572;10.704;2023-01-26T00:33:08;92709.59;;;-3.59;100.00
52735;BME280;38631;47.572;10.704;2023-01-26T00:35:34;92705.72;;;-3.68;100.00
52735;BME280;38631;47.572;10.704;2023-01-26T00:37:59;92706.16;;;-3.71;100.00
52735;BME280;38631;47.572;10.704;2023-01-26T00:40:24;92705.09;;;-3.63;100.00
52735;BME280;38631;47.572;10.704;2023-01-26T00:42:50;92702.00;;;-3.79;100.00
52735;BME280;38631;47.572;10.704;2023-01-26T00:45:17;92698.41;;;-3.78;100.00
52735;BME280;38631;47.572;10.704;2023-01-26T00:47:42;92702.19;;;-3.74;100.00
52735;BME280;38631;47.572;10.704;2023-01-26T00:50:09;92704.44;;;-3.84;100.00
52735;BME280;38631;47.572;10.704;2023-01-26T00:52:34;92701.00;;;-3.78;100.00
52735;BME280;38631;47.572;10.704;2023-01-26T00:55:00;92702.97;;;-3.73;100.00
52735;BME280;38631;47.572;10.704;2023-01-26T00:57:25;92700.09;;;-3.65;100.00
52735;BME280;38631;47.572;10.704;2023-01-26T00:59:50;92703.75;;;-3.73;100.00
52735;BME280;38631;47.572;10.704;2023-01-26T01:02:16;92697.41;;;-3.77;100.00
52735;BME280;38631;47.572;10.704;2023-01-26T01:04:41;92705.16;;;-3.95;100.00
52735;BME280;38631;47.572;10.704;2023-01-26T01:07:06;92712.06;;;-3.89;100.00
52735;BME280;38631;47.572;10.704;2023-01-26T01:09:32;92717.00;;;-3.81;100.00
52735;BME280;38631;47.572;10.704;2023-01-26T01:11:57;92712.56;;;-3.99;100.00
52735;BME280;38631;47.572;10.704;2023-01-26T01:14:23;92710.75;;;-3.98;100.00
52735;BME280;38631;47.572;10.704;2023-01-26T01:16:48;92717.22;;;-3.82;100.00
52735;BME280;38631;47.572;10.704;2023-01-26T01:19:16;92723.31;;;-3.95;100.00
52735;BME280;38631;47.572;10.704;2023-01-26T01:21:42;92717.00;;;-3.81;100.00
52735;BME280;38631;47.572;10.704;2023-01-26T01:24:08;92719.75;;;-3.76;100.00
52735;BME280;38631;47.572;10.704;2023-01-26T01:26:33;92713.66;;;-3.88;100.00
52735;BME280;38631;47.572;10.704;2023-01-26T01:28:58;92720.88;;;-3.90;100.00
52735;BME280;38631;47.572;10.704;2023-01-26T01:31:24;92716.09;;;-3.93;100.00
52735;BME280;38631;47.572;10.704;2023-01-26T01:33:51;92706.94;;;-3.96;100.00
52735;BME280;38631;47.572;10.704;2023-01-26T01:36:17;92707.53;;;-4.19;100.00
52735;BME280;38631;47.572;10.704;2023-01-26T01:38:44;92710.34;;;-3.95;100.00
52735;BME280;38631;47.572;10.704;2023-01-26T01:41:10;92705.34;;;-4.22;100.00
52735;BME280;38631;47.572;10.704;2023-01-26T01:43:36;92703.94;;;-3.93;100.00
52735;BME280;38631;47.572;10.704;2023-01-26T01:46:10;92704.50;;;-3.91;100.00
52735;BME280;38631;47.572;10.704;2023-01-26T01:52:08;92708.97;;;-3.98;100.00
52735;BME280;38631;47.572;10.704;2023-01-26T01:54:41;92711.38;;;-4.03;100.00
52735;BME280;38631;47.572;10.704;2023-01-26T01:57:13;92705.16;;;-3.95;100.00
52735;BME280;38631;47.572;10.704;2023-01-26T01:59:44;92709.38;;;-4.01;100.00
52735;BME280;38631;47.572;10.704;2023-01-26T02:02:11;92714.19;;;-3.79;100.00
52735;BME280;38631;47.572;10.704;2023-01-26T02:04:37;92708.31;;;-3.93;100.00
52735;BME280;38631;47.572;10.704;2023-01-26T02:07:03;92709.75;;;-4.29;100.00
52735;BME280;38631;47.572;10.704;2023-01-26T02:09:35;92707.25;;;-4.10;100.00
52735;BME280;38631;47.572;10.704;2023-01-26T02:12:24;92707.53;;;-4.19;100.00
52735;BME280;38631;47.572;10.704;2023-01-26T02:14:51;92703.22;;;-4.06;100.00
52735;BME280;38631;47.572;10.704;2023-01-26T02:17:17;92707.78;;;-4.02;100.00
52735;BME280;38631;47.572;10.704;2023-01-26T02:22:42;92691.56;;;-3.72;100.00
52735;BME280;38631;47.572;10.704;2023-01-26T02:25:31;92686.84;;;-4.00;100.00
52735;BME280;38631;47.572;10.704;2023-01-26T02:28:00;92685.56;;;-4.16;100.00
52735;BME280;38631;47.572;10.704;2023-01-26T02:30:27;92674.34;;;-4.10;100.00
52735;BME280;38631;47.572;10.704;2023-01-26T02:32:53;92676.50;;;-4.32;100.00
52735;BME280;38631;47.572;10.704;2023-01-26T02:35:19;92669.19;;;-4.17;100.00
52735;BME280;38631;47.572;10.704;2023-01-26T02:37:44;92667.94;;;-4.32;100.00
52735;BME280;38631;47.572;10.704;2023-01-26T02:40:18;92666.41;;;-4.15;100.00
52735;BME280;38631;47.572;10.704;2023-01-26T02:42:49;92666.41;;;-4.15;100.00
52735;BME280;38631;47.572;10.704;2023-01-26T02:45:19;92646.88;;;-4.18;100.00
52735;BME280;38631;47.572;10.704;2023-01-26T02:47:45;92651.22;;;-4.37;100.00
52735;BME280;38631;47.572;10.704;2023-01-26T02:50:11;92642.28;;;-4.41;100.00
52735;BME280;38631;47.572;10.704;2023-01-26T02:52:36;92647.94;;;-4.25;100.00
52735;BME280;38631;47.572;10.704;2023-01-26T02:55:03;92637.63;;;-4.32;100.00
52735;BME280;38631;47.572;10.704;2023-01-26T02:57:47;92636.66;;;-4.13;100.00
52735;BME280;38631;47.572;10.704;2023-01-26T03:00:24;92643.72;;;-4.20;100.00
52735;BME280;38631;47.572;10.704;2023-01-26T03:02:52;92638.22;;;-4.30;100.00
52735;BME280;38631;47.572;10.704;2023-01-26T03:05:19;92631.47;;;-3.87;100.00
52735;BME280;38631;47.572;10.704;2023-01-26T03:07:44;92628.72;;;-3.93;100.00
52735;BME280;38631;47.572;10.704;2023-01-26T03:10:11;92626.63;;;-3.84;100.00
52735;BME280;38631;47.572;10.704;2023-01-26T03:12:36;92619.50;;;-3.70;100.00
52735;BME280;38631;47.572;10.704;2023-01-26T03:15:02;92626.31;;;-3.94;100.00
52735;BME280;38631;47.572;10.704;2023-01-26T03:17:46;92622.00;;;-4.00;100.00
52735;BME280;38631;47.572;10.704;2023-01-26T03:20:12;92620.06;;;-4.05;100.00
52735;BME280;38631;47.572;10.704;2023-01-26T03:22:56;92626.50;;;-4.14;100.00
52735;BME280;38631;47.572;10.704;2023-01-26T03:25:40;92621.59;;;-4.22;100.00
52735;BME280;38631;47.572;10.704;2023-01-26T03:28:24;92618.38;;;-4.18;100.00
52735;BME280;38631;47.572;10.704;2023-01-26T03:30:52;92615.44;;;-4.03;100.00
52735;BME280;38631;47.572;10.704;2023-01-26T03:33:18;92615.91;;;-3.69;100.00
52735;BME280;38631;47.572;10.704;2023-01-26T03:35:45;92618.84;;;-3.84;100.00
52735;BME280;38631;47.572;10.704;2023-01-26T03:38:10;92618.88;;;-3.65;100.00
52735;BME280;38631;47.572;10.704;2023-01-26T03:40:36;92613.97;;;-3.55;100.00
52735;BME280;38631;47.572;10.704;2023-01-26T03:43:31;92614.25;;;-3.63;100.00
52735;BME280;38631;47.572;10.704;2023-01-26T03:46:15;92611.97;;;-3.53;100.00
52735;BME280;38631;47.572;10.704;2023-01-26T03:48:59;92616.66;;;-3.43;100.00
52735;BME280;38631;47.572;10.704;2023-01-26T03:51:43;92610.84;;;-3.82;100.00
52735;BME280;38631;47.572;10.704;2023-01-26T03:54:27;92620.97;;;-4.18;100.00
52735;BME280;38631;47.572;10.704;2023-01-26T03:57:11;92611.47;;;-4.24;100.00
52735;BME280;38631;47.572;10.704;2023-01-26T03:59:36;92621.91;;;-4.37;100.00
52735;BME280;38631;47.572;10.704;2023-01-26T04:02:03;92616.38;;;-4.16;100.00
52735;BME280;38631;47.572;10.704;2023-01-26T04:04:47;92620.16;;;-3.75;100.00
52735;BME280;38631;47.572;10.704;2023-01-26T04:07:31;92610.84;;;-3.64;100.00
52735;BME280;38631;47.572;10.704;2023-01-26T04:10:15;92609.38;;;-3.53;100.00
52735;BME280;38631;47.572;10.704;2023-01-26T04:12:40;92604.97;;;-3.53;100.00
52735;BME280;38631;47.572;10.704;2023-01-26T04:15:06;92604.78;;;-3.39;100.00
52735;BME280;38631;47.572;10.704;2023-01-26T04:17:50;92599.53;;;-3.51;100.00
52735;BME280;38631;47.572;10.704;2023-01-26T04:20:34;92589.25;;;-3.58;100.00
52735;BME280;38631;47.572;10.704;2023-01-26T04:23:18;92592.75;;;-3.89;100.00
52735;BME280;38631;47.572;10.704;2023-01-26T04:25:44;92586.84;;;-3.59;100.00
52735;BME280;38631;47.572;10.704;2023-01-26T04:28:09;92578.13;;;-3.47;100.00
52735;BME280;38631;47.572;10.704;2023-01-26T04:30:35;92584.69;;;-3.62;100.00
52735;BME280;38631;47.572;10.704;2023-01-26T04:33:00;92572.53;;;-3.43;100.00
52735;BME280;38631;47.572;10.704;2023-01-26T04:35:25;92575.91;;;-3.43;100.00
52735;BME280;38631;47.572;10.704;2023-01-26T04:37:51;92578.09;;;-3.58;100.00
52735;BME280;38631;47.572;10.704;2023-01-26T04:40:16;92570.28;;;-3.77;100.00
52735;BME280;38631;47.572;10.704;2023-01-26T04:42:41;92568.78;;;-4.03;100.00
52735;BME280;38631;47.572;10.704;2023-01-26T04:45:09;92562.06;;;-3.92;100.00
52735;BME280;38631;47.572;10.704;2023-01-26T04:47:34;92566.31;;;-3.79;100.00
52735;BME280;38631;47.572;10.704;2023-01-26T04:50:00;92561.66;;;-3.71;100.00
52735;BME280;38631;47.572;10.704;2023-01-26T04:52:25;92565.16;;;-3.65;100.00
52735;BME280;38631;47.572;10.704;2023-01-26T04:54:50;92569.88;;;-3.74;100.00
52735;BME280;38631;47.572;10.704;2023-01-26T04:57:16;92564.72;;;-3.62;100.00
52735;BME280;38631;47.572;10.704;2023-01-26T04:59:44;92567.69;;;-3.58;100.00
52735;BME280;38631;47.572;10.704;2023-01-26T05:02:10;92569.41;;;-3.52;100.00
52735;BME280;38631;47.572;10.704;2023-01-26T05:04:35;92568.94;;;-3.61;100.00
52735;BME280;38631;47.572;10.704;2023-01-26T05:07:00;92567.03;;;-3.72;100.00
52735;BME280;38631;47.572;10.704;2023-01-26T05:09:26;92570.22;;;-3.70;100.00
52735;BME280;38631;47.572;10.704;2023-01-26T05:11:51;92566.25;;;-3.73;100.00
52735;BME280;38631;47.572;10.704;2023-01-26T05:14:17;92570.88;;;-3.75;100.00
52735;BME280;38631;47.572;10.704;2023-01-26T05:16:42;92568.50;;;-3.58;100.00
52735;BME280;38631;47.572;10.704;2023-01-26T05:19:07;92566.97;;;-3.65;100.00
52735;BME280;38631;47.572;10.704;2023-01-26T05:21:33;92567.50;;;-3.75;100.00
52735;BME280;38631;47.572;10.704;2023-01-26T05:23:58;92566.19;;;-3.66;100.00
52735;BME280;38631;47.572;10.704;2023-01-26T05:26:23;92570.84;;;-3.56;100.00
52735;BME280;38631;47.572;10.704;2023-01-26T05:28:49;92576.50;;;-3.78;100.00
52735;BME280;38631;47.572;10.704;2023-01-26T05:31:14;92575.19;;;-3.87;100.00
52735;BME280;38631;47.572;10.704;2023-01-26T05:33:39;92576.69;;;-3.79;100.00
52735;BME280;38631;47.572;10.704;2023-01-26T05:36:06;92579.72;;;-3.64;100.00
52735;BME280;38631;47.572;10.704;2023-01-26T05:38:32;92577.44;;;-3.91;100.00
52735;BME280;38631;47.572;10.704;2023-01-26T05:40:57;92580.38;;;-3.87;100.00
52735;BME280;38631;47.572;10.704;2023-01-26T05:43:23;92581.41;;;-3.88;100.00
52735;BME280;38631;47.572;10.704;2023-01-26T05:45:49;92574.50;;;-4.19;100.00
52735;BME280;38631;47.572;10.704;2023-01-26T05:48:14;92584.19;;;-4.08;100.00
52735;BME280;38631;47.572;10.704;2023-01-26T05:50:41;92583.41;;;-3.90;100.00
52735;BME280;38631;47.572;10.704;2023-01-26T05:53:07;92593.06;;;-3.79;100.00
52735;BME280;38631;47.572;10.704;2023-01-26T05:55:32;92584.78;;;-3.51;100.00
52735;BME280;38631;47.572;10.704;2023-01-26T05:57:58;92587.00;;;-3.54;100.00
52735;BME280;38631;47.572;10.704;2023-01-26T06:00:23;92591.34;;;-3.48;100.00
52735;BME280;38631;47.572;10.704;2023-01-26T06:02:48;92590.25;;;-3.59;100.00
52735;BME280;38631;47.572;10.704;2023-01-26T06:05:14;92591.31;;;-3.66;100.00
52735;BME280;38631;47.572;10.704;2023-01-26T06:07:39;92591.75;;;-3.70;100.00
52735;BME280;38631;47.572;10.704;2023-01-26T06:10:05;92591.41;;;-3.73;100.00
52735;BME280;38631;47.572;10.704;2023-01-26T06:12:30;92591.59;;;-3.56;100.00
52735;BME280;38631;47.572;10.704;2023-01-26T06:15:00;92596.66;;;-3.61;100.00
52735;BME280;38631;47.572;10.704;2023-01-26T06:17:25;92603.44;;;-3.60;99.83
52735;BME280;38631;47.572;10.704;2023-01-26T06:19:52;92599.97;;;-3.54;99.26
52735;BME280;38631;47.572;10.704;2023-01-26T06:22:17;92595.16;;;-3.51;99.01
52735;BME280;38631;47.572;10.704;2023-01-26T06:24:43;92600.72;;;-3.65;98.99
52735;BME280;38631;47.572;10.704;2023-01-26T06:27:13;92595.78;;;-4.10;97.77
52735;BME280;38631;47.572;10.704;2023-01-26T06:29:39;92596.75;;;-4.30;98.84
52735;BME280;38631;47.572;10.704;2023-01-26T06:32:06;92589.56;;;-4.09;97.87
52735;BME280;38631;47.572;10.704;2023-01-26T06:34:31;92593.03;;;-3.97;98.39
52735;BME280;38631;47.572;10.704;2023-01-26T06:36:57;92591.03;;;-3.77;98.07
52735;BME280;38631;47.572;10.704;2023-01-26T06:39:23;92595.53;;;-3.65;97.79
52735;BME280;38631;47.572;10.704;2023-01-26T06:41:48;92597.53;;;-3.67;97.25
52735;BME280;38631;47.572;10.704;2023-01-26T06:44:13;92590.88;;;-3.82;98.37
52735;BME280;38631;47.572;10.704;2023-01-26T06:46:39;92593.03;;;-3.97;98.08
52735;BME280;38631;47.572;10.704;2023-01-26T06:49:04;92596.88;;;-4.00;97.47
52735;BME280;38631;47.572;10.704;2023-01-26T06:51:56;92591.13;;;-3.83;97.79
52735;BME280;38631;47.572;10.704;2023-01-26T06:54:22;92592.91;;;-3.84;97.78
52735;BME280;38631;47.572;10.704;2023-01-26T06:56:47;92592.41;;;-3.74;98.34
52735;BME280;38631;47.572;10.704;2023-01-26T06:59:13;92590.75;;;-3.87;98.58
52735;BME280;38631;47.572;10.704;2023-01-26T07:01:42;92593.06;;;-3.79;98.27
52735;BME280;38631;47.572;10.704;2023-01-26T07:04:08;92592.00;;;-3.71;98.49
52735;BME280;38631;47.572;10.704;2023-01-26T07:06:33;92590.63;;;-3.74;97.71
52735;BME280;38631;47.572;10.704;2023-01-26T07:08:59;92593.00;;;-3.72;98.38
52735;BME280;38631;47.572;10.704;2023-01-26T07:11:24;92585.28;;;-3.79;98.12
52735;BME280;38631;47.572;10.704;2023-01-26T07:13:50;92581.69;;;-3.78;98.23
52735;BME280;38631;47.572;10.704;2023-01-26T07:16:16;92586.78;;;-3.89;97.65
52735;BME280;38631;47.572;10.704;2023-01-26T07:18:42;92589.38;;;-3.89;99.54
52735;BME280;38631;47.572;10.704;2023-01-26T07:21:13;92588.97;;;-3.68;99.82
52735;BME280;38631;47.572;10.704;2023-01-26T07:23:39;92596.78;;;-3.56;98.58
52735;BME280;38631;47.572;10.704;2023-01-26T07:26:05;92591.59;;;-3.56;98.13
52735;BME280;38631;47.572;10.704;2023-01-26T07:28:31;92591.75;;;-3.51;98.67
52735;BME280;38631;47.572;10.704;2023-01-26T07:31:11;92598.75;;;-3.52;98.23
52735;BME280;38631;47.572;10.704;2023-01-26T07:33:36;92597.31;;;-3.48;98.43
52735;BME280;38631;47.572;10.704;2023-01-26T07:36:02;92594.50;;;-3.64;98.28
52735;BME280;38631;47.572;10.704;2023-01-26T07:38:28;92601.50;;;-3.65;98.96
52735;BME280;38631;47.572;10.704;2023-01-26T07:40:54;92602.53;;;-3.66;99.26
52735;BME280;38631;47.572;10.704;2023-01-26T07:43:20;92593.38;;;-4.12;99.86
52735;BME280;38631;47.572;10.704;2023-01-26T07:45:50;92600.56;;;-4.14;100.00
52735;BME280;38631;47.572;10.704;2023-01-26T07:48:20;92590.97;;;-3.88;100.00
52735;BME280;38631;47.572;10.704;2023-01-26T07:50:46;92585.41;;;-3.92;99.72
52735;BME280;38631;47.572;10.704;2023-01-26T07:53:13;92589.81;;;-3.93;100.00
52735;BME280;38631;47.572;10.704;2023-01-26T07:55:43;92589.47;;;-3.78;100.00
52735;BME280;38631;47.572;10.704;2023-01-26T07:58:12;92584.91;;;-4.01;99.61
52735;BME280;38631;47.572;10.704;2023-01-26T08:00:37;92586.06;;;-3.97;99.65
52735;BME280;38631;47.572;10.704;2023-01-26T08:03:04;92582.72;;;-4.04;100.00
52735;BME280;38631;47.572;10.704;2023-01-26T08:05:30;92581.59;;;-3.89;100.00
52735;BME280;38631;47.572;10.704;2023-01-26T08:07:59;92576.91;;;-3.99;100.00
52735;BME280;38631;47.572;10.704;2023-01-26T08:10:26;92563.81;;;-3.86;100.00
52735;BME280;38631;47.572;10.704;2023-01-26T08:12:52;92565.97;;;-3.83;99.55
52735;BME280;38631;47.572;10.704;2023-01-26T08:15:17;92568.22;;;-3.68;99.53
52735;BME280;38631;47.572;10.704;2023-01-26T08:17:43;92568.56;;;-3.83;99.74
52735;BME280;38631;47.572;10.704;2023-01-26T08:20:09;92558.84;;;-3.87;98.86
52735;BME280;38631;47.572;10.704;2023-01-26T08:22:34;92551.25;;;-3.89;98.57
52735;BME280;38631;47.572;10.704;2023-01-26T08:24:59;92555.13;;;-4.17;99.31
52735;BME280;38631;47.572;10.704;2023-01-26T08:27:25;92555.94;;;-4.16;100.00
52735;BME280;38631;47.572;10.704;2023-01-26T08:29:50;92554.88;;;-4.08;100.00
52735;BME280;38631;47.572;10.704;2023-01-26T08:32:15;92563.28;;;-3.95;99.95
52735;BME280;38631;47.572;10.704;2023-01-26T08:34:41;92558.50;;;-3.91;99.63
52735;BME280;38631;47.572;10.704;2023-01-26T08:37:06;92556.09;;;-4.11;98.90
52735;BME280;38631;47.572;10.704;2023-01-26T08:39:32;92557.97;;;-4.18;99.65
52735;BME280;38631;47.572;10.704;2023-01-26T08:41:57;92562.84;;;-4.10;99.80
52735;BME280;38631;47.572;10.704;2023-01-26T08:44:22;92552.34;;;-4.15;98.44
52735;BME280;38631;47.572;10.704;2023-01-26T08:46:48;92553.13;;;-4.15;98.77
52735;BME280;38631;47.572;10.704;2023-01-26T08:49:13;92548.53;;;-4.13;100.00
52735;BME280;38631;47.572;10.704;2023-01-26T08:51:38;92547.75;;;-3.95;99.46
52735;BME280;38631;47.572;10.704;2023-01-26T08:54:05;92553.66;;;-4.06;98.87
52735;BME280;38631;47.572;10.704;2023-01-26T08:56:34;92554.88;;;-3.90;100.00
52735;BME280;38631;47.572;10.704;2023-01-26T08:59:00;92550.75;;;-3.79;98.71
52735;BME280;38631;47.572;10.704;2023-01-26T09:01:25;92554.22;;;-3.85;98.74
52735;BME280;38631;47.572;10.704;2023-01-26T09:03:51;92544.00;;;-3.99;98.43
52735;BME280;38631;47.572;10.704;2023-01-26T09:06:17;92544.66;;;-4.03;98.59
52735;BME280;38631;47.572;10.704;2023-01-26T09:08:43;92544.66;;;-4.03;99.44
52735;BME280;38631;47.572;10.704;2023-01-26T09:11:08;92548.59;;;-4.19;99.01
52735;BME280;38631;47.572;10.704;2023-01-26T09:13:34;92545.19;;;-4.20;99.61
52735;BME280;38631;47.572;10.704;2023-01-26T09:16:14;92551.84;;;-4.05;99.38
52735;BME280;38631;47.572;10.704;2023-01-26T09:18:39;92548.75;;;-3.96;98.85
52735;BME280;38631;47.572;10.704;2023-01-26T09:21:06;92553.38;;;-3.98;99.55
52735;BME280;38631;47.572;10.704;2023-01-26T09:23:32;92555.59;;;-3.83;99.21
52735;BME280;38631;47.572;10.704;2023-01-26T09:25:58;92554.16;;;-3.97;97.80
52735;BME280;38631;47.572;10.704;2023-01-26T09:28:24;92555.16;;;-3.80;96.40
52735;BME280;38631;47.572;10.704;2023-01-26T09:30:49;92555.16;;;-3.98;96.96
52735;BME280;38631;47.572;10.704;2023-01-26T09:33:14;92559.19;;;-4.02;97.42
52735;BME280;38631;47.572;10.704;2023-01-26T09:35:40;92562.81;;;-4.03;96.99
52735;BME280;38631;47.572;10.704;2023-01-26T09:38:05;92564.97;;;-4.00;97.86
52735;BME280;38631;47.572;10.704;2023-01-26T09:43:20;92566.53;;;-3.99;98.17
52735;BME280;38631;47.572;10.704;2023-01-26T09:46:11;92560.94;;;-3.96;98.06
52735;BME280;38631;47.572;10.704;2023-01-26T09:48:42;92575.72;;;-3.78;97.77
52735;BME280;38631;47.572;10.704;2023-01-26T09:51:12;92567.41;;;-4.05;97.50
52735;BME280;38631;47.572;10.704;2023-01-26T09:53:44;92572.38;;;-3.85;98.01
52735;BME280;38631;47.572;10.704;2023-01-26T09:56:15;92568.47;;;-3.76;98.83
52735;BME280;38631;47.572;10.704;2023-01-26T09:58:41;92569.00;;;-3.86;97.05
52735;BME280;38631;47.572;10.704;2023-01-26T10:01:29;92563.16;;;-3.81;97.66
52735;BME280;38631;47.572;10.704;2023-01-26T10:04:23;92565.19;;;-3.83;97.22
52735;BME280;38631;47.572;10.704;2023-01-26T10:06:55;92561.28;;;-3.74;97.44
52735;BME280;38631;47.572;10.704;2023-01-26T10:09:24;92562.16;;;-3.99;98.00
52735;BME280;38631;47.572;10.704;2023-01-26T10:11:57;92561.78;;;-3.65;98.04
52735;BME280;38631;47.572;10.704;2023-01-26T10:16:56;92563.94;;;-3.62;97.32
52735;BME280;38631;47.572;10.704;2023-01-26T10:19:33;92549.41;;;-4.00;98.16
52735;BME280;38631;47.572;10.704;2023-01-26T10:22:05;92555.16;;;-3.98;99.30
52735;BME280;38631;47.572;10.704;2023-01-26T10:24:34;92552.63;;;-3.68;98.61
52735;BME280;38631;47.572;10.704;2023-01-26T10:27:00;92549.94;;;-3.61;98.05
52735;BME280;38631;47.572;10.704;2023-01-26T10:29:26;92554.34;;;-3.62;98.26
52735;BME280;38631;47.572;10.704;2023-01-26T10:31:51;92550.19;;;-3.81;97.91
52735;BME280;38631;47.572;10.704;2023-01-26T10:34:22;92552.06;;;-3.70;97.63
52735;BME280;38631;47.572;10.704;2023-01-26T10:36:47;92537.44;;;-4.01;98.53
52735;BME280;38631;47.572;10.704;2023-01-26T10:39:15;92544.28;;;-3.88;98.98
52735;BME280;38631;47.572;10.704;2023-01-26T10:41:58;92543.75;;;-3.79;98.62
52735;BME280;38631;47.572;10.704;2023-01-26T10:44:33;92553.50;;;-3.74;98.36
52735;BME280;38631;47.572;10.704;2023-01-26T10:49:29;92542.13;;;-3.73;98.04
52735;BME280;38631;47.572;10.704;2023-01-26T10:52:15;92546.22;;;-3.65;97.46
52735;BME280;38631;47.572;10.704;2023-01-26T10:54:42;92547.09;;;-3.90;97.80
52735;BME280;38631;47.572;10.704;2023-01-26T10:57:29;92545.44;;;-4.03;98.59
52735;BME280;38631;47.572;10.704;2023-01-26T11:00:03;92548.44;;;-4.24;98.91
52735;BME280;38631;47.572;10.704;2023-01-26T11:02:34;92543.47;;;-4.07;99.66
52735;BME280;38631;47.572;10.704;2023-01-26T11:05:12;92547.38;;;-3.98;99.01
52735;BME280;38631;47.572;10.704;2023-01-26T11:07:40;92545.09;;;-3.88;99.19
52735;BME280;38631;47.572;10.704;2023-01-26T11:12:40;92546.81;;;-4.00;99.00
52735;BME280;38631;47.572;10.704;2023-01-26T11:15:21;92539.16;;;-3.95;99.52
52735;BME280;38631;47.572;10.704;2023-01-26T11:17:51;92533.63;;;-3.99;98.88
52735;BME280;38631;47.572;10.704;2023-01-26T11:20:56;92540.13;;;-3.71;98.81
52735;BME280;38631;47.572;10.704;2023-01-26T11:26:16;92536.38;;;-3.94;97.51
52735;BME280;38631;47.572;10.704;2023-01-26T11:31:41;92537.38;;;-4.13;98.70
52735;BME280;38631;47.572;10.704;2023-01-26T11:37:13;92539.53;;;-4.10;98.24
52735;BME280;38631;47.572;10.704;2023-01-26T11:50:03;92530.38;;;-3.94;97.56
52735;BME280;38631;47.572;10.704;2023-01-26T11:58:17;92519.00;;;-3.93;98.10
52735;BME280;38631;47.572;10.704;2023-01-26T12:01:00;92506.47;;;-4.15;97.53
52735;BME280;38631;47.572;10.704;2023-01-26T12:03:40;92508.47;;;-4.35;97.53
52735;BME280;38631;47.572;10.704;2023-01-26T12:06:14;92508.47;;;-4.35;97.10
52735;BME280;38631;47.572;10.704;2023-01-26T12:08:51;92511.78;;;-4.09;97.67
52735;BME280;38631;47.572;10.704;2023-01-26T12:11:43;92503.44;;;-4.30;97.57
52735;BME280;38631;47.572;10.704;2023-01-26T12:14:26;92514.31;;;-4.21;98.65
52735;BME280;38631;47.572;10.704;2023-01-26T12:19:37;92515.50;;;-4.42;96.89
52735;BME280;38631;47.572;10.704;2023-01-26T12:22:13;92515.75;;;-4.25;96.84
52735;BME280;38631;47.572;10.704;2023-01-26T12:24:52;92520.25;;;-4.39;96.80
52735;BME280;38631;47.572;10.704;2023-01-26T12:27:25;92520.09;;;-4.01;97.69
52735;BME280;38631;47.572;10.704;2023-01-26T12:30:05;92507.53;;;-4.04;95.60
52735;BME280;38631;47.572;10.704;2023-01-26T12:32:40;92517.13;;;-4.04;95.83
52735;BME280;38631;47.572;10.704;2023-01-26T12:35:10;92506.97;;;-4.06;95.80
52735;BME280;38631;47.572;10.704;2023-01-26T12:37:50;92502.00;;;-4.07;96.10
52735;BME280;38631;47.572;10.704;2023-01-26T12:40:34;92509.19;;;-4.09;95.80
52735;BME280;38631;47.572;10.704;2023-01-26T12:43:25;92502.22;;;-4.09;96.87
52735;BME280;38631;47.572;10.704;2023-01-26T12:45:56;92505.75;;;-4.22;96.33
52735;BME280;38631;47.572;10.704;2023-01-26T12:48:32;92493.34;;;-4.38;96.66
52735;BME280;38631;47.572;10.704;2023-01-26T12:51:04;92496.97;;;-4.21;96.65
52735;BME280;38631;47.572;10.704;2023-01-26T12:53:42;92495.47;;;-4.28;96.55
52735;BME280;38631;47.572;10.704;2023-01-26T12:58:44;92501.00;;;-3.88;95.63
52735;BME280;38631;47.572;10.704;2023-01-26T13:01:23;92497.09;;;-3.97;95.94
52735;BME280;38631;47.572;10.704;2023-01-26T13:03:54;92501.13;;;-4.01;95.02
52735;BME280;38631;47.572;10.704;2023-01-26T13:06:25;92498.88;;;-3.79;95.06
52735;BME280;38631;47.572;10.704;2023-01-26T13:11:48;92511.28;;;-3.81;95.03
52735;BME280;38631;47.572;10.704;2023-01-26T13:14:33;92499.59;;;-3.72;94.99
52735;BME280;38631;47.572;10.704;2023-01-26T13:28:02;92500.56;;;-3.85;94.63
52735;BME280;38631;47.572;10.704;2023-01-26T13:30:33;92497.69;;;-3.95;95.26
52735;BME280;38631;47.572;10.704;2023-01-26T13:33:29;92499.38;;;-3.89;95.30
52735;BME280;38631;47.572;10.704;2023-01-26T13:35:54;92492.78;;;-3.85;94.98
52735;BME280;38631;47.572;10.704;2023-01-26T13:38:35;92492.69;;;-3.97;95.67
52735;BME280;38631;47.572;10.704;2023-01-26T13:41:07;92489.59;;;-3.87;95.84
52735;BME280;38631;47.572;10.704;2023-01-26T13:43:43;92486.00;;;-3.86;94.09
52735;BME280;38631;47.572;10.704;2023-01-26T13:46:20;92490.19;;;-3.85;94.46
52735;BME280;38631;47.572;10.704;2023-01-26T13:48:48;92486.31;;;-4.13;94.39
52735;BME280;38631;47.572;10.704;2023-01-26T13:51:21;92489.31;;;-4.34;94.86
52735;BME280;38631;47.572;10.704;2023-01-26T13:54:06;92489.69;;;-4.12;95.82
52735;BME280;38631;47.572;10.704;2023-01-26T13:56:58;92494.88;;;-4.49;96.11
52735;BME280;38631;47.572;10.704;2023-01-26T13:59:24;92496.38;;;-4.04;94.38